createdAt,value
2023-05-06T00:00:06.213Z,84.57
2023-05-06T00:02:32.896Z,84.50
2023-05-06T00:04:59.324Z,84.55
2023-05-06T00:07:25.680Z,84.53
2023-05-06T00:09:52.250Z,84.52
2023-05-06T00:12:18.589Z,84.48
2023-05-06T00:14:44.947Z,84.48
2023-05-06T00:17:11.288Z,84.53
2023-05-06T00:19:37.623Z,84.54
2023-05-06T00:22:04.178Z,84.47
2023-05-06T00:24:30.518Z,84.48
2023-05-06T00:26:57.094Z,84.51
2023-05-06T00:29:23.467Z,84.48
2023-05-06T00:31:50.064Z,84.50
2023-05-06T00:34:16.461Z,84.50
2023-05-06T00:36:43.039Z,84.48
2023-05-06T00:39:09.375Z,84.49
2023-05-06T00:41:35.749Z,84.52
2023-05-06T00:44:02.100Z,84.49
2023-05-06T00:46:28.469Z,84.47
2023-05-06T00:48:54.861Z,84.49
2023-05-06T00:51:21.217Z,84.44
2023-05-06T00:53:47.576Z,84.48
2023-05-06T00:56:13.909Z,84.47
2023-05-06T00:58:40.279Z,84.51
2023-05-06T01:01:06.663Z,84.49
2023-05-06T01:03:35.816Z,84.48
2023-05-06T01:06:02.242Z,84.48
2023-05-06T01:08:28.847Z,84.46
2023-05-06T01:10:55.164Z,84.45
2023-05-06T01:13:21.799Z,84.48
2023-05-06T01:15:48.175Z,84.44
2023-05-06T01:18:14.733Z,84.38
2023-05-06T01:20:41.083Z,84.35
2023-05-06T01:23:07.662Z,84.37
2023-05-06T01:25:34.021Z,84.39
2023-05-06T01:28:00.613Z,84.41
2023-05-06T01:30:26.955Z,84.35
2023-05-06T01:32:53.595Z,84.38
2023-05-06T01:35:19.963Z,84.34
2023-05-06T01:37:46.532Z,84.35
2023-05-06T01:40:12.880Z,84.30
2023-05-06T01:42:39.437Z,84.31
2023-05-06T01:45:05.772Z,84.31
2023-05-06T01:47:32.375Z,84.31
2023-05-06T01:49:58.729Z,84.32
2023-05-06T01:52:25.066Z,84.36
2023-05-06T01:54:51.429Z,84.31
2023-05-06T01:57:17.759Z,84.31
2023-05-06T01:59:44.090Z,84.36
2023-05-06T02:02:10.469Z,84.32
2023-05-06T02:04:37.100Z,84.35
2023-05-06T02:07:04.005Z,84.35
2023-05-06T02:09:30.348Z,84.31
2023-05-06T02:11:56.672Z,84.33
2023-05-06T02:14:23.033Z,84.35
2023-05-06T02:16:49.605Z,84.31
2023-05-06T02:19:15.944Z,84.35
2023-05-06T02:21:42.287Z,84.35
2023-05-06T02:24:08.628Z,84.38
2023-05-06T02:26:34.974Z,84.41
2023-05-06T02:29:01.369Z,84.38
2023-05-06T02:31:27.739Z,84.39
2023-05-06T02:33:54.110Z,84.37
2023-05-06T02:36:20.458Z,84.38
2023-05-06T02:38:46.799Z,84.42
2023-05-06T02:41:13.155Z,84.40
2023-05-06T02:43:39.502Z,84.41
2023-05-06T02:46:05.958Z,84.42
2023-05-06T02:48:32.557Z,84.44
2023-05-06T02:50:58.897Z,84.41
2023-05-06T02:53:25.227Z,84.42
2023-05-06T02:55:51.561Z,84.42
2023-05-06T02:58:18.116Z,84.45
2023-05-06T03:00:44.504Z,84.41
2023-05-06T03:03:11.099Z,84.45
2023-05-06T03:05:37.460Z,84.47
2023-05-06T03:08:04.104Z,84.46
2023-05-06T03:10:30.430Z,84.44
2023-05-06T03:12:56.992Z,84.45
2023-05-06T03:15:23.379Z,84.47
2023-05-06T03:17:50.002Z,84.50
2023-05-06T03:20:16.367Z,84.48
2023-05-06T03:22:42.740Z,84.49
2023-05-06T03:25:09.327Z,84.49
2023-05-06T03:27:36.019Z,84.50
2023-05-06T03:30:02.668Z,84.49
2023-05-06T03:32:29.077Z,84.49
2023-05-06T03:34:55.448Z,84.51
2023-05-06T03:37:21.794Z,84.54
2023-05-06T03:39:48.379Z,84.51
2023-05-06T03:42:14.713Z,84.51
2023-05-06T03:44:41.086Z,84.48
2023-05-06T03:47:07.422Z,84.46
2023-05-06T03:49:33.774Z,84.48
2023-05-06T03:52:00.140Z,84.49
2023-05-06T03:54:26.735Z,84.45
2023-05-06T03:56:53.083Z,84.49
2023-05-06T03:59:19.625Z,84.50
2023-05-06T04:01:45.974Z,84.52
2023-05-06T04:04:12.406Z,84.52
2023-05-06T04:06:38.831Z,84.50
2023-05-06T04:09:05.184Z,84.51
2023-05-06T04:11:31.513Z,84.48
2023-05-06T04:13:58.055Z,84.50
2023-05-06T04:16:24.403Z,84.54
2023-05-06T04:18:51.027Z,84.52
2023-05-06T04:21:17.376Z,84.51
2023-05-06T04:23:43.723Z,84.54
2023-05-06T04:26:10.281Z,84.54
2023-05-06T04:28:36.622Z,84.52
2023-05-06T04:31:03.197Z,84.56
2023-05-06T04:33:29.549Z,84.54
2023-05-06T04:35:55.895Z,84.50
2023-05-06T04:38:22.251Z,84.54
2023-05-06T04:40:48.654Z,84.54
2023-05-06T04:43:15.212Z,84.52
2023-05-06T04:45:41.585Z,84.55
2023-05-06T04:48:08.211Z,84.53
2023-05-06T04:50:34.526Z,84.54
2023-05-06T04:53:00.874Z,84.62
2023-05-06T04:55:27.425Z,84.59
2023-05-06T04:57:53.996Z,84.57
2023-05-06T05:00:20.572Z,84.58
2023-05-06T05:02:47.179Z,84.56
2023-05-06T05:05:13.851Z,84.58
2023-05-06T05:07:40.197Z,84.59
2023-05-06T05:10:06.519Z,84.56
2023-05-06T05:12:32.902Z,84.57
2023-05-06T05:14:59.493Z,84.64
2023-05-06T05:17:25.835Z,84.58
2023-05-06T05:19:52.398Z,84.60
2023-05-06T05:22:18.737Z,84.63
2023-05-06T05:24:46.062Z,84.64
2023-05-06T05:27:12.438Z,84.64
2023-05-06T05:29:38.800Z,84.64
2023-05-06T05:32:05.387Z,84.66
2023-05-06T05:34:31.932Z,84.69
2023-05-06T05:36:58.266Z,84.69
2023-05-06T05:39:24.609Z,84.70
2023-05-06T05:41:51.184Z,84.67
2023-05-06T05:44:17.526Z,84.70
2023-05-06T05:46:44.077Z,84.74
2023-05-06T05:49:10.565Z,84.71
2023-05-06T05:51:36.898Z,84.68
2023-05-06T05:54:03.474Z,84.68
2023-05-06T05:56:29.827Z,84.73
2023-05-06T05:58:56.169Z,84.73
2023-05-06T06:01:22.513Z,84.75
2023-05-06T06:03:49.019Z,84.75
2023-05-06T06:06:15.760Z,84.76
2023-05-06T06:08:42.100Z,84.79
2023-05-06T06:11:08.441Z,84.81
2023-05-06T06:13:34.780Z,84.81
2023-05-06T06:16:01.183Z,84.82
2023-05-06T06:18:27.801Z,84.82
2023-05-06T06:20:54.187Z,84.87
2023-05-06T06:23:20.528Z,84.82
2023-05-06T06:25:47.084Z,84.82
2023-05-06T06:28:13.430Z,84.86
2023-05-06T06:30:39.778Z,84.91
2023-05-06T06:33:06.152Z,84.90
2023-05-06T06:35:32.543Z,84.86
2023-05-06T06:37:58.909Z,84.88
2023-05-06T06:40:25.261Z,84.96
2023-05-06T06:42:51.631Z,84.88
2023-05-06T06:45:17.978Z,84.89
2023-05-06T06:47:44.386Z,84.91
2023-05-06T06:50:10.791Z,84.94
2023-05-06T06:52:37.993Z,84.90
2023-05-06T06:55:04.323Z,84.94
2023-05-06T06:57:30.663Z,84.90
2023-05-06T06:59:56.997Z,84.95
2023-05-06T07:02:23.545Z,84.98
2023-05-06T07:04:49.897Z,84.93
2023-05-06T07:07:16.453Z,84.92
2023-05-06T07:09:42.815Z,84.95
2023-05-06T07:12:09.378Z,84.96
2023-05-06T07:14:35.712Z,85.00
2023-05-06T07:17:02.092Z,84.95
2023-05-06T07:19:28.468Z,84.95
2023-05-06T07:21:54.808Z,84.92
2023-05-06T07:24:21.145Z,84.95
2023-05-06T07:26:47.493Z,84.91
2023-05-06T07:29:14.026Z,85.02
2023-05-06T07:31:40.576Z,84.92
2023-05-06T07:34:06.912Z,84.84
2023-05-06T07:36:33.241Z,84.86
2023-05-06T07:38:59.792Z,84.85
2023-05-06T07:41:26.140Z,84.84
2023-05-06T07:43:52.694Z,84.81
2023-05-06T07:46:19.160Z,84.79
2023-05-06T07:48:45.571Z,84.78
2023-05-06T07:51:12.155Z,84.76
2023-05-06T07:53:38.524Z,84.81
2023-05-06T07:56:04.878Z,84.75
2023-05-06T07:58:31.209Z,84.79
2023-05-06T08:00:57.541Z,84.75
2023-05-06T08:03:24.167Z,84.71
2023-05-06T08:05:50.667Z,84.72
2023-05-06T08:08:17.017Z,84.74
2023-05-06T08:10:43.357Z,84.73
2023-05-06T08:13:09.754Z,84.74
2023-05-06T08:15:36.374Z,84.74
2023-05-06T08:18:13.860Z,84.70
2023-05-06T08:20:47.767Z,84.69
2023-05-06T08:23:14.102Z,84.72
2023-05-06T08:25:40.661Z,84.76
2023-05-06T08:28:07.033Z,84.86
2023-05-06T08:30:33.596Z,84.95
2023-05-06T08:32:59.957Z,85.02
2023-05-06T08:35:26.317Z,84.95
2023-05-06T08:37:52.624Z,84.82
2023-05-06T08:40:18.990Z,84.78
2023-05-06T08:42:45.543Z,84.77
2023-05-06T08:45:12.069Z,84.82
2023-05-06T08:47:38.582Z,84.81
2023-05-06T08:50:04.950Z,84.96
2023-05-06T08:52:31.295Z,85.02
2023-05-06T08:54:57.631Z,84.96
2023-05-06T08:57:23.972Z,84.77
2023-05-06T08:59:50.311Z,84.81
2023-05-06T09:02:16.729Z,84.75
2023-05-06T09:04:43.123Z,84.75
2023-05-06T09:07:09.471Z,84.80
2023-05-06T09:09:36.032Z,84.86
2023-05-06T09:12:02.393Z,84.76
2023-05-06T09:14:28.746Z,84.85
2023-05-06T09:16:55.100Z,84.86
2023-05-06T09:19:21.945Z,84.81
2023-05-06T09:21:48.277Z,84.77
2023-05-06T09:24:14.623Z,84.81
2023-05-06T09:26:40.975Z,84.78
2023-05-06T09:29:07.324Z,84.84
2023-05-06T09:31:33.827Z,84.96
2023-05-06T09:34:00.199Z,84.86
2023-05-06T09:36:26.554Z,84.89
2023-05-06T09:38:53.102Z,84.80
2023-05-06T09:41:19.454Z,84.81
2023-05-06T09:43:45.793Z,84.76
2023-05-06T09:46:12.177Z,84.80
2023-05-06T09:48:38.555Z,84.77
2023-05-06T09:51:04.889Z,84.76
2023-05-06T09:53:31.436Z,84.77
2023-05-06T09:55:57.781Z,84.75
2023-05-06T09:58:24.115Z,84.74
2023-05-06T10:00:50.458Z,84.74
2023-05-06T10:03:16.974Z,84.77
2023-05-06T10:05:43.460Z,84.82
2023-05-06T10:08:09.821Z,84.86
2023-05-06T10:10:36.204Z,84.94
2023-05-06T10:13:02.567Z,84.89
2023-05-06T10:15:28.971Z,84.79
2023-05-06T10:17:55.360Z,84.79
2023-05-06T10:20:21.720Z,84.77
2023-05-06T10:22:48.057Z,84.76
2023-05-06T10:25:14.385Z,84.86
2023-05-06T10:27:40.936Z,84.86
2023-05-06T10:30:07.763Z,84.85
2023-05-06T10:32:34.338Z,84.79
2023-05-06T10:35:00.909Z,84.76
2023-05-06T10:37:27.252Z,84.74
2023-05-06T10:39:53.814Z,84.77
2023-05-06T10:42:20.137Z,84.78
2023-05-06T10:44:46.684Z,84.80
2023-05-06T10:47:13.043Z,84.75
2023-05-06T10:49:39.600Z,84.77
2023-05-06T10:52:06.171Z,84.76
2023-05-06T10:54:32.509Z,84.76
2023-05-06T10:56:58.878Z,84.70
2023-05-06T10:59:25.254Z,84.69
2023-05-06T11:01:51.595Z,84.77
2023-05-06T11:04:17.942Z,84.74
2023-05-06T11:06:44.292Z,84.70
2023-05-06T11:09:10.698Z,84.95
2023-05-06T11:11:37.054Z,84.85
2023-05-06T11:14:03.418Z,84.76
2023-05-06T11:16:29.779Z,84.82
2023-05-06T11:18:56.326Z,84.88
2023-05-06T11:21:22.669Z,84.77
2023-05-06T11:23:49.245Z,84.81
2023-05-06T11:26:15.825Z,84.78
2023-05-06T11:28:42.164Z,84.96
2023-05-06T11:31:08.520Z,85.14
2023-05-06T11:33:34.906Z,85.01
2023-05-06T11:36:01.261Z,84.84
2023-05-06T11:38:27.855Z,84.97
2023-05-06T11:40:54.196Z,84.87
2023-05-06T11:43:20.543Z,84.82
2023-05-06T11:45:46.962Z,84.80
2023-05-06T11:48:13.369Z,84.79
2023-05-06T11:50:39.709Z,84.82
2023-05-06T11:53:06.042Z,84.77
2023-05-06T11:55:32.371Z,84.89
2023-05-06T11:57:58.703Z,84.75
2023-05-06T12:00:25.069Z,84.75
2023-05-06T12:02:51.527Z,84.87
2023-05-06T12:05:17.902Z,84.93
2023-05-06T12:07:44.243Z,84.88
2023-05-06T12:10:11.009Z,84.76
2023-05-06T12:12:37.749Z,84.75
2023-05-06T12:15:04.603Z,84.66
2023-05-06T12:17:31.042Z,84.67
2023-05-06T12:19:57.417Z,84.65
2023-05-06T12:22:23.952Z,84.66
2023-05-06T12:24:50.317Z,84.59
2023-05-06T12:27:16.661Z,84.65
2023-05-06T12:29:43.000Z,84.58
2023-05-06T12:32:09.407Z,84.66
2023-05-06T12:34:35.815Z,84.80
2023-05-06T12:37:02.152Z,84.75
2023-05-06T12:39:28.690Z,84.68
2023-05-06T12:41:55.400Z,84.67
2023-05-06T12:44:21.746Z,84.56
2023-05-06T12:46:48.077Z,84.68
2023-05-06T12:49:14.432Z,84.59
2023-05-06T12:51:41.003Z,84.55
2023-05-06T12:54:07.341Z,84.55
2023-05-06T12:56:33.676Z,84.57
2023-05-06T12:59:00.028Z,84.55
2023-05-06T13:01:26.480Z,84.56
2023-05-06T13:03:52.946Z,84.58
2023-05-06T13:06:19.287Z,84.55
2023-05-06T13:08:45.645Z,84.62
2023-05-06T13:11:12.212Z,84.55
2023-05-06T13:13:38.541Z,84.59
2023-05-06T13:16:05.794Z,84.57
2023-05-06T13:18:32.134Z,84.61
2023-05-06T13:20:58.491Z,84.60
2023-05-06T13:23:24.822Z,84.63
2023-05-06T13:26:03.494Z,84.79
2023-05-06T13:28:30.909Z,84.84
2023-05-06T13:30:57.266Z,84.77
2023-05-06T13:33:23.625Z,84.69
2023-05-06T13:35:49.967Z,84.70
2023-05-06T13:38:16.299Z,84.70
2023-05-06T13:40:42.642Z,84.63
2023-05-06T13:43:08.996Z,84.81
2023-05-06T13:45:35.340Z,84.74
2023-05-06T13:48:01.734Z,84.82
2023-05-06T13:50:28.110Z,85.04
2023-05-06T13:52:54.436Z,84.78
2023-05-06T13:55:20.990Z,84.70
2023-05-06T13:57:47.415Z,84.72
2023-05-06T14:00:13.756Z,84.68
2023-05-06T14:02:40.118Z,84.69
2023-05-06T14:05:07.140Z,84.74
2023-05-06T14:07:33.557Z,84.70
2023-05-06T14:09:59.894Z,84.69
2023-05-06T14:12:26.188Z,84.62
2023-05-06T14:14:52.533Z,84.62
2023-05-06T14:17:18.881Z,84.63
2023-05-06T14:19:45.214Z,84.63
2023-05-06T14:22:11.553Z,84.62
2023-05-06T14:24:37.912Z,84.62
2023-05-06T14:27:04.292Z,84.58
2023-05-06T14:29:30.674Z,84.59
2023-05-06T14:31:57.042Z,84.62
2023-05-06T14:34:23.421Z,84.59
2023-05-06T14:36:49.973Z,84.60
2023-05-06T14:39:16.354Z,84.70
2023-05-06T14:41:42.692Z,84.71
2023-05-06T14:44:09.037Z,84.79
2023-05-06T14:46:35.380Z,84.70
2023-05-06T14:49:01.930Z,84.62
2023-05-06T14:51:28.269Z,84.66
2023-05-06T14:53:54.613Z,84.74
2023-05-06T14:56:20.963Z,84.90
2023-05-06T14:58:47.317Z,84.72
2023-05-06T15:01:13.702Z,84.63
2023-05-06T15:03:40.097Z,85.00
2023-05-06T15:06:06.677Z,84.75
2023-05-06T15:08:33.054Z,84.72
2023-05-06T15:11:00.637Z,84.62
2023-05-06T15:13:28.715Z,84.62
2023-05-06T15:15:55.057Z,84.52
2023-05-06T15:18:21.396Z,84.72
2023-05-06T15:20:47.729Z,84.54
2023-05-06T15:23:14.282Z,84.74
2023-05-06T15:25:40.931Z,84.73
2023-05-06T15:28:07.515Z,84.54
2023-05-06T15:30:33.854Z,84.53
2023-05-06T15:33:00.241Z,84.43
2023-05-06T15:35:26.847Z,84.49
2023-05-06T15:37:53.198Z,84.57
2023-05-06T15:40:19.541Z,84.59
2023-05-06T15:42:45.876Z,84.35
2023-05-06T15:45:12.215Z,84.56
2023-05-06T15:47:38.582Z,84.48
2023-05-06T15:50:14.052Z,84.46
2023-05-06T15:52:51.429Z,84.44
2023-05-06T15:55:19.025Z,84.38
2023-05-06T15:57:45.768Z,84.40
2023-05-06T16:00:12.391Z,84.39
2023-05-06T16:02:39.013Z,84.47
2023-05-06T16:05:05.521Z,84.43
2023-05-06T16:07:31.904Z,84.29
2023-05-06T16:09:58.254Z,84.27
2023-05-06T16:12:24.593Z,84.29
2023-05-06T16:14:50.923Z,84.34
2023-05-06T16:17:17.256Z,84.33
2023-05-06T16:19:43.575Z,84.34
2023-05-06T16:22:09.915Z,84.30
2023-05-06T16:24:36.248Z,84.32
2023-05-06T16:27:02.582Z,84.25
2023-05-06T16:29:29.148Z,84.31
2023-05-06T16:31:55.546Z,84.23
2023-05-06T16:34:22.055Z,84.29
2023-05-06T16:36:48.406Z,84.29
2023-05-06T16:39:14.751Z,84.30
2023-05-06T16:41:41.087Z,84.30
2023-05-06T16:44:07.478Z,84.33
2023-05-06T16:46:33.857Z,84.30
2023-05-06T16:49:00.333Z,84.27
2023-05-06T16:51:26.699Z,84.24
2023-05-06T16:53:53.075Z,84.26
2023-05-06T16:56:19.502Z,84.26
2023-05-06T16:58:45.851Z,84.26
2023-05-06T17:01:12.224Z,84.24
2023-05-06T17:03:38.699Z,84.24
2023-05-06T17:06:05.180Z,84.23
2023-05-06T17:08:36.082Z,84.23
2023-05-06T17:11:05.088Z,84.30
2023-05-06T17:13:31.637Z,84.28
2023-05-06T17:15:57.990Z,84.26
2023-05-06T17:18:24.335Z,84.30
2023-05-06T17:20:55.936Z,84.32
2023-05-06T17:23:23.407Z,84.32
2023-05-06T17:25:49.754Z,84.23
2023-05-06T17:28:17.369Z,84.25
2023-05-06T17:30:45.033Z,84.32
2023-05-06T17:33:11.441Z,84.32
2023-05-06T17:35:37.790Z,84.36
2023-05-06T17:38:04.144Z,84.39
2023-05-06T17:40:30.733Z,84.36
2023-05-06T17:42:57.069Z,84.39
2023-05-06T17:45:23.410Z,84.39
2023-05-06T17:47:49.802Z,84.43
2023-05-06T17:50:16.170Z,84.41
2023-05-06T17:52:42.529Z,84.42
2023-05-06T17:55:16.567Z,84.40
2023-05-06T17:57:43.808Z,84.46
2023-05-06T18:00:10.136Z,84.47
2023-05-06T18:02:36.619Z,84.48
2023-05-06T18:05:03.293Z,84.44
2023-05-06T18:07:29.657Z,84.43
2023-05-06T18:09:56.028Z,84.47
2023-05-06T18:12:22.359Z,84.45
2023-05-06T18:14:48.683Z,84.43
2023-05-06T18:17:15.237Z,84.42
2023-05-06T18:19:41.570Z,84.46
2023-05-06T18:22:07.906Z,84.43
2023-05-06T18:24:34.252Z,84.41
2023-05-06T18:27:00.588Z,84.46
2023-05-06T18:29:27.139Z,84.44
2023-05-06T18:31:53.551Z,84.44
2023-05-06T18:34:19.921Z,84.46
2023-05-06T18:36:46.286Z,84.51
2023-05-06T18:39:12.630Z,84.48
2023-05-06T18:41:38.967Z,84.42
2023-05-06T18:44:05.336Z,84.46
2023-05-06T18:46:31.910Z,84.46
2023-05-06T18:48:58.233Z,84.45
2023-05-06T18:51:24.572Z,84.41
2023-05-06T18:53:50.921Z,84.46
2023-05-06T18:56:17.274Z,84.44
2023-05-06T18:58:43.620Z,84.44
2023-05-06T19:01:10.041Z,84.42
2023-05-06T19:03:36.689Z,84.39
2023-05-06T19:06:03.206Z,84.44
2023-05-06T19:08:29.564Z,84.41
2023-05-06T19:10:55.928Z,84.38
2023-05-06T19:13:22.351Z,84.41
2023-05-06T19:15:48.761Z,84.44
2023-05-06T19:18:15.097Z,84.41
2023-05-06T19:20:41.658Z,84.35
2023-05-06T19:23:07.995Z,84.37
2023-05-06T19:25:34.343Z,84.38
2023-05-06T19:28:00.704Z,84.35
2023-05-06T19:30:27.059Z,84.35
2023-05-06T19:32:54.813Z,84.36
2023-05-06T19:35:21.829Z,84.33
2023-05-06T19:37:48.174Z,84.32
2023-05-06T19:40:14.512Z,84.25
2023-05-06T19:42:41.097Z,84.31
2023-05-06T19:45:07.601Z,84.28
2023-05-06T19:47:34.169Z,84.28
2023-05-06T19:50:00.527Z,84.30
2023-05-06T19:52:26.867Z,84.19
2023-05-06T19:54:54.258Z,84.23
2023-05-06T19:57:20.728Z,84.22
2023-05-06T19:59:47.300Z,84.21
2023-05-06T20:02:13.643Z,84.18
2023-05-06T20:04:39.971Z,84.19
2023-05-06T20:07:06.317Z,84.17
2023-05-06T20:09:32.666Z,84.14
2023-05-06T20:11:59.026Z,84.14
2023-05-06T20:14:25.413Z,84.14
2023-05-06T20:16:51.992Z,84.16
2023-05-06T20:19:18.834Z,84.14
2023-05-06T20:21:45.172Z,84.08
2023-05-06T20:24:11.521Z,84.10
2023-05-06T20:26:37.865Z,84.07
2023-05-06T20:29:04.215Z,83.99
2023-05-06T20:31:30.593Z,84.05
2023-05-06T20:33:57.186Z,83.98
2023-05-06T20:36:23.516Z,83.99
2023-05-06T20:38:49.846Z,83.96
2023-05-06T20:41:16.188Z,83.96
2023-05-06T20:43:42.534Z,83.94
2023-05-06T20:46:08.974Z,83.92
2023-05-06T20:48:35.360Z,83.93
2023-05-06T20:51:01.715Z,83.88
2023-05-06T20:53:28.062Z,83.90
2023-05-06T20:55:54.446Z,83.94
2023-05-06T20:58:21.067Z,83.89
2023-05-06T21:00:47.651Z,83.89
2023-05-06T21:03:14.072Z,83.88
2023-05-06T21:05:40.580Z,83.87
2023-05-06T21:08:06.936Z,83.88
2023-05-06T21:10:33.279Z,83.85
2023-05-06T21:12:59.644Z,83.77
2023-05-06T21:15:26.028Z,83.82
2023-05-06T21:17:52.727Z,83.75
2023-05-06T21:20:19.116Z,83.78
2023-05-06T21:22:45.689Z,83.74
2023-05-06T21:25:12.248Z,83.73
2023-05-06T21:27:38.781Z,83.71
2023-05-06T21:30:05.136Z,83.72
2023-05-06T21:32:31.493Z,83.69
2023-05-06T21:34:57.849Z,83.69
2023-05-06T21:37:24.188Z,83.65
2023-05-06T21:39:50.536Z,83.65
2023-05-06T21:42:16.872Z,83.63
2023-05-06T21:44:43.434Z,83.66
2023-05-06T21:47:09.767Z,83.65
2023-05-06T21:49:36.105Z,83.61
2023-05-06T21:52:02.448Z,83.63
2023-05-06T21:54:28.784Z,83.60
2023-05-06T21:56:55.124Z,83.59
2023-05-06T21:59:21.463Z,83.57
2023-05-06T22:01:48.072Z,83.57
2023-05-06T22:04:14.456Z,83.56
2023-05-06T22:06:40.805Z,83.60
2023-05-06T22:09:07.376Z,83.55
2023-05-06T22:11:33.703Z,83.53
2023-05-06T22:14:00.063Z,83.55
2023-05-06T22:16:26.425Z,83.52
2023-05-06T22:18:52.798Z,83.59
2023-05-06T22:21:19.141Z,83.54
2023-05-06T22:23:45.553Z,83.52
2023-05-06T22:26:12.153Z,83.49
2023-05-06T22:28:38.475Z,83.44
2023-05-06T22:31:05.076Z,83.48
2023-05-06T22:33:31.446Z,83.43
2023-05-06T22:35:57.788Z,83.47
2023-05-06T22:38:24.151Z,83.43
2023-05-06T22:40:50.484Z,83.47
2023-05-06T22:43:16.812Z,83.39
2023-05-06T22:45:43.216Z,83.44
2023-05-06T22:48:09.959Z,83.44
2023-05-06T22:50:36.431Z,83.38
2023-05-06T22:53:10.310Z,83.38
2023-05-06T22:55:41.113Z,83.37
2023-05-06T22:58:07.462Z,83.35
2023-05-06T23:00:33.818Z,83.35
2023-05-06T23:03:00.248Z,83.32
2023-05-06T23:05:26.864Z,83.31
2023-05-06T23:07:53.221Z,83.35
2023-05-06T23:10:19.556Z,83.34
2023-05-06T23:12:45.959Z,83.27
2023-05-06T23:15:12.529Z,83.32
2023-05-06T23:17:39.058Z,83.30
2023-05-06T23:20:05.417Z,83.24
2023-05-06T23:22:31.976Z,83.25
2023-05-06T23:24:58.302Z,83.32
2023-05-06T23:27:24.884Z,83.37
2023-05-06T23:29:51.273Z,83.27
2023-05-06T23:32:17.604Z,83.28
2023-05-06T23:34:43.927Z,83.24
2023-05-06T23:37:10.275Z,83.20
2023-05-06T23:39:36.618Z,83.31
2023-05-06T23:42:02.949Z,83.34
2023-05-06T23:44:29.547Z,83.27
2023-05-06T23:46:55.969Z,83.29
2023-05-06T23:49:22.509Z,83.32
2023-05-06T23:51:48.837Z,83.23
2023-05-06T23:54:15.184Z,83.35
2023-05-06T23:56:41.536Z,83.34
2023-05-06T23:59:07.908Z,83.36
